Time;durP1;ratioP1;P1;durP2;ratioP2;P2;SDS_P1;SDS_P2;PMS_P1;PMS_P2;Temp;Humidity;BMP_temperature;BMP_pressure;BME280_temperature;BME280_humidity;BME280_pressure;Samples;Min_cycle;Max_cycle;Signal;HPM_P1;HPM_P2
2023/03/16 00:01:06;;;;;;;23.50;15.00;;;;;;;3.43;100.00;98927.66;110369;1270;22505;-71
2023/03/16 00:03:35;;;;;;;22.10;15.20;;;;;;;3.43;100.00;98927.36;110336;1276;22943;-71
2023/03/16 00:06:04;;;;;;;23.20;15.70;;;;;;;3.39;100.00;98923.41;110306;1276;22272;-70
2023/03/16 00:08:37;;;;;;;21.70;15.30;;;;;;;3.35;100.00;98920.27;110386;1273;23223;-71
2023/03/16 00:11:05;;;;;;;24.60;16.00;;;;;;;3.29;100.00;98916.05;110354;1276;22166;-71
2023/03/16 00:13:35;;;;;;;23.60;15.40;;;;;;;3.29;100.00;98916.89;110249;1277;22225;-71
2023/03/16 00:16:03;;;;;;;19.50;14.30;;;;;;;3.29;100.00;98912.91;110366;1276;22440;-71
2023/03/16 00:18:37;;;;;;;20.30;13.90;;;;;;;3.29;100.00;98912.71;110223;1277;22264;-71
2023/03/16 00:21:06;;;;;;;21.40;14.80;;;;;;;3.20;100.00;98907.55;110365;1276;22241;-71
2023/03/16 00:23:35;;;;;;;22.50;16.10;;;;;;;3.05;100.00;98905.48;110383;1272;22314;-70
2023/03/16 00:26:07;;;;;;;23.40;15.60;;;;;;;2.94;100.00;98897.80;110284;1269;22241;-70
2023/03/16 00:28:38;;;;;;;25.50;15.90;;;;;;;2.92;100.00;98899.48;110335;1276;22316;-71
2023/03/16 00:31:10;;;;;;;22.70;15.00;;;;;;;2.90;100.00;98897.70;110280;1276;22314;-71
2023/03/16 00:33:41;;;;;;;20.80;14.60;;;;;;;2.89;100.00;98896.59;110414;1276;22435;-70
2023/03/16 00:36:10;;;;;;;22.30;14.60;;;;;;;2.88;100.00;98894.59;110244;1276;22360;-71
2023/03/16 00:38:48;;;;;;;23.70;15.70;;;;;;;2.83;100.00;98894.92;110274;1276;22239;-71
2023/03/16 00:41:17;;;;;;;21.60;15.40;;;;;;;2.77;100.00;98893.57;110326;1276;23100;-70
2023/03/16 00:43:47;;;;;;;23.90;15.40;;;;;;;2.77;100.00;98894.49;110341;1272;22268;-71
2023/03/16 00:46:16;;;;;;;22.20;14.60;;;;;;;2.75;100.00;98895.27;110364;1273;22446;-71
2023/03/16 00:48:45;;;;;;;23.00;14.80;;;;;;;2.70;100.00;98900.55;110396;1272;22231;-71
2023/03/16 00:51:15;;;;;;;21.60;14.20;;;;;;;2.57;100.00;98900.95;110288;1276;22847;-70
2023/03/16 00:53:44;;;;;;;22.20;13.60;;;;;;;2.46;100.00;98910.65;110118;1276;22287;-70
2023/03/16 00:56:12;;;;;;;25.70;16.00;;;;;;;2.35;100.00;98913.86;110278;1276;22202;-70
2023/03/16 00:58:42;;;;;;;22.50;14.60;;;;;;;2.30;100.00;98916.31;110301;1276;22232;-71
2023/03/16 01:01:17;;;;;;;21.70;13.90;;;;;;;2.24;100.00;98917.48;110239;1276;22906;-71
2023/03/16 01:03:46;;;;;;;22.90;15.10;;;;;;;2.17;100.00;98911.67;110143;1271;22210;-71
2023/03/16 01:06:15;;;;;;;25.90;16.00;;;;;;;2.05;100.00;98919.35;110201;1276;22449;-71
2023/03/16 01:08:44;;;;;;;22.40;14.80;;;;;;;1.96;100.00;98916.95;110166;1276;22201;-71
2023/03/16 01:11:17;;;;;;;22.30;15.10;;;;;;;1.97;100.00;98921.86;110277;1276;23154;-72
2023/03/16 01:13:48;;;;;;;21.30;15.30;;;;;;;1.99;100.00;98918.06;110378;1276;22256;-72
2023/03/16 01:16:22;;;;;;;25.50;16.20;;;;;;;2.00;100.00;98922.21;110394;1276;22911;-71
2023/03/16 01:18:51;;;;;;;22.90;16.00;;;;;;;2.01;100.00;98919.11;110327;1276;22313;-71
2023/03/16 01:21:20;;;;;;;24.80;16.80;;;;;;;1.99;100.00;98928.35;110156;1276;22435;-71
2023/03/16 01:23:52;;;;;;;26.40;16.40;;;;;;;1.89;100.00;98927.17;110251;1272;22199;-71
2023/03/16 01:26:22;;;;;;;22.80;16.00;;;;;;;1.83;100.00;98934.89;110396;1276;22312;-71
2023/03/16 01:28:50;;;;;;;24.80;16.80;;;;;;;1.75;100.00;98943.55;110119;1276;22496;-71
2023/03/16 01:31:18;;;;;;;25.00;16.80;;;;;;;1.68;100.00;98947.58;110217;1276;23483;-71
2023/03/16 01:33:47;;;;;;;33.60;18.30;;;;;;;1.62;100.00;98949.52;110391;1276;22324;-71
2023/03/16 01:36:20;;;;;;;34.10;18.30;;;;;;;1.65;100.00;98951.48;110236;1276;22333;-71
2023/03/16 01:39:01;;;;;;;20.80;14.40;;;;;;;1.68;100.00;98955.30;110337;1276;23006;-71
2023/03/16 01:41:37;;;;;;;27.30;16.90;;;;;;;1.73;100.00;98956.74;110170;1270;22263;-70
2023/03/16 01:44:06;;;;;;;26.20;16.80;;;;;;;1.75;100.00;98957.60;110158;1276;22236;-70
2023/03/16 01:46:36;;;;;;;27.60;17.30;;;;;;;1.78;100.00;98960.52;110175;1276;22467;-71
2023/03/16 01:49:05;;;;;;;31.70;19.10;;;;;;;1.76;100.00;98960.74;110337;1276;22206;-71
2023/03/16 01:51:45;;;;;;;27.80;17.00;;;;;;;1.80;100.00;98958.10;110234;1276;22906;-70
2023/03/16 01:54:21;;;;;;;27.90;17.80;;;;;;;1.84;100.00;98954.43;110369;1276;22364;-71
2023/03/16 01:57:10;;;;;;;32.00;18.60;;;;;;;1.88;100.00;98956.30;110199;1273;22380;-71
2023/03/16 01:59:52;;;;;;;30.10;19.10;;;;;;;1.84;100.00;98957.54;110252;1276;23554;-71
2023/03/16 02:02:23;;;;;;;27.80;17.60;;;;;;;1.86;100.00;98955.45;110230;1276;22333;-71
2023/03/16 02:05:32;;;;;;;27.60;17.20;;;;;;;1.98;100.00;98963.52;110266;1276;22230;-70
2023/03/16 02:08:01;;;;;;;26.70;17.60;;;;;;;2.15;100.00;98966.29;109770;1282;22322;-71
2023/03/16 02:10:30;;;;;;;27.40;18.50;;;;;;;2.25;100.00;98970.85;110107;1276;22291;-70
2023/03/16 02:12:58;;;;;;;30.60;19.00;;;;;;;2.32;100.00;98967.61;110013;1273;22336;-70
2023/03/16 02:15:28;;;;;;;28.60;18.60;;;;;;;2.37;100.00;98972.08;110155;1270;22412;-71
2023/03/16 02:17:59;;;;;;;31.10;18.60;;;;;;;2.45;100.00;98966.55;110305;1270;23292;-71
2023/03/16 02:20:48;;;;;;;27.50;19.10;;;;;;;2.48;100.00;98963.20;109913;1276;22407;-72
2023/03/16 02:23:18;;;;;;;30.20;20.10;;;;;;;2.49;100.00;98969.03;110355;1276;23544;-71
2023/03/16 02:25:52;;;;;;;35.40;21.50;;;;;;;2.59;100.00;98973.38;110014;1276;22259;-71
2023/03/16 02:28:26;;;;;;;38.20;22.80;;;;;;;2.71;100.00;98979.04;110088;1274;22259;-71
2023/03/16 02:30:54;;;;;;;32.50;20.50;;;;;;;2.77;100.00;98984.81;110163;1276;22431;-71
2023/03/16 02:33:22;;;;;;;32.70;21.50;;;;;;;2.86;100.00;98993.73;110186;1276;22206;-70
2023/03/16 02:35:50;;;;;;;30.30;20.10;;;;;;;2.93;100.00;98989.73;110062;1276;23093;-71
2023/03/16 02:38:19;;;;;;;31.90;20.30;;;;;;;2.99;100.00;98993.55;110186;1270;22289;-71
2023/03/16 02:40:59;;;;;;;30.40;19.20;;;;;;;3.04;100.00;98999.45;110240;1276;22332;-71
2023/03/16 02:43:32;;;;;;;31.60;19.20;;;;;;;3.03;100.00;99002.29;110377;1276;22213;-71
2023/03/16 02:46:22;;;;;;;29.70;18.60;;;;;;;2.96;100.00;99009.38;110114;1277;22173;-71
2023/03/16 02:48:57;;;;;;;32.10;19.10;;;;;;;2.99;100.00;99005.05;110155;1274;22437;-71
2023/03/16 02:51:28;;;;;;;31.70;18.10;;;;;;;3.05;100.00;99007.81;110014;1276;22224;-70
2023/03/16 02:53:57;;;;;;;35.80;20.00;;;;;;;3.11;100.00;99006.69;110213;1276;22254;-70
2023/03/16 02:56:27;;;;;;;30.10;19.40;;;;;;;3.13;100.00;99004.88;110119;1276;23385;-72
2023/03/16 02:58:56;;;;;;;35.60;20.90;;;;;;;3.13;100.00;99002.14;110249;1271;22437;-72
2023/03/16 03:01:33;;;;;;;34.10;18.60;;;;;;;3.10;100.00;98992.25;110125;1273;22652;-71
2023/03/16 03:04:03;;;;;;;31.90;18.80;;;;;;;3.07;100.00;98991.81;110205;1277;22324;-71
2023/03/16 03:06:32;;;;;;;33.20;19.30;;;;;;;3.10;100.00;98992.61;110210;1277;22204;-71
2023/03/16 03:09:02;;;;;;;32.30;19.50;;;;;;;3.17;100.00;98997.01;110137;1278;22214;-71
2023/03/16 03:11:31;;;;;;;30.90;19.80;;;;;;;3.21;100.00;98998.90;110183;1270;22978;-71
2023/03/16 03:13:59;;;;;;;29.80;20.50;;;;;;;3.21;100.00;99003.20;110207;1277;22389;-71
2023/03/16 03:16:28;;;;;;;32.80;19.90;;;;;;;3.25;100.00;99010.50;110149;1278;22194;-71
2023/03/16 03:18:57;;;;;;;31.80;19.40;;;;;;;3.31;100.00;99009.67;110206;1270;22360;-71
2023/03/16 03:21:28;;;;;;;30.60;18.30;;;;;;;3.31;100.00;99002.84;110172;1278;22888;-70
2023/03/16 03:23:57;;;;;;;33.60;20.20;;;;;;;3.25;100.00;99001.33;110238;1277;22325;-71
2023/03/16 03:26:25;;;;;;;31.00;20.90;;;;;;;3.17;100.00;99001.14;110215;1271;22367;-71
2023/03/16 03:28:54;;;;;;;31.10;20.50;;;;;;;3.14;100.00;99002.77;110201;1277;22975;-71
2023/03/16 03:31:23;;;;;;;30.90;20.30;;;;;;;3.19;100.00;98996.45;110221;1277;22179;-71
2023/03/16 03:33:52;;;;;;;30.70;20.20;;;;;;;3.23;100.00;98997.44;110156;1277;22241;-71
2023/03/16 03:36:22;;;;;;;29.90;20.50;;;;;;;3.26;100.00;98998.82;110159;1270;22415;-71
2023/03/16 03:38:53;;;;;;;29.20;20.50;;;;;;;3.22;100.00;99002.15;110119;1274;22299;-71
2023/03/16 03:41:22;;;;;;;29.90;19.20;;;;;;;3.20;100.00;99002.80;110076;1272;22405;-71
2023/03/16 03:43:51;;;;;;;28.70;18.90;;;;;;;3.24;100.00;98997.87;110219;1271;23114;-71
2023/03/16 03:46:25;;;;;;;31.10;18.20;;;;;;;3.26;100.00;99004.80;110161;1277;23397;-71
2023/03/16 03:48:57;;;;;;;28.00;17.80;;;;;;;3.22;100.00;99007.97;110182;1277;22321;-71
2023/03/16 03:51:25;;;;;;;29.10;18.70;;;;;;;3.24;100.00;99014.88;110199;1277;22766;-71
2023/03/16 03:54:15;;;;;;;27.50;17.70;;;;;;;3.25;100.00;99021.20;110214;1276;22263;-71
2023/03/16 03:56:43;;;;;;;29.10;18.30;;;;;;;3.18;100.00;99023.75;110182;1272;22839;-71
2023/03/16 03:59:15;;;;;;;26.20;16.50;;;;;;;3.15;100.00;99025.48;110013;1272;22244;-71
2023/03/16 04:02:02;;;;;;;27.30;15.90;;;;;;;3.14;100.00;99025.38;110235;1277;22914;-71
2023/03/16 04:04:42;;;;;;;30.40;15.80;;;;;;;3.15;100.00;99027.25;110241;1277;22275;-71
2023/03/16 04:07:12;;;;;;;22.30;14.10;;;;;;;3.14;100.00;99026.95;110229;1276;22302;-70
2023/03/16 04:09:40;;;;;;;21.90;13.30;;;;;;;3.07;100.00;99030.74;110208;1276;22932;-70
2023/03/16 04:12:15;;;;;;;20.20;14.10;;;;;;;2.93;100.00;99029.84;110198;1277;22428;-71
2023/03/16 04:14:44;;;;;;;25.20;14.20;;;;;;;2.80;100.00;99033.52;109658;1272;637046;-71
2023/03/16 04:18:37;;;;;;;18.20;11.80;;;;;;;2.68;100.00;99034.41;104298;1305;545214;-70
2023/03/16 04:21:11;;;;;;;19.90;12.90;;;;;;;2.60;100.00;99042.82;106791;1283;23715;-70
2023/03/16 04:23:41;;;;;;;17.10;11.30;;;;;;;2.52;100.00;99041.21;109465;1283;22407;-70
2023/03/16 04:26:10;;;;;;;19.30;12.40;;;;;;;2.46;100.00;99048.48;109450;1289;22508;-70
2023/03/16 04:28:39;;;;;;;20.00;12.50;;;;;;;2.44;100.00;99048.92;109446;1288;22247;-71
2023/03/16 04:31:11;;;;;;;22.60;12.50;;;;;;;2.44;100.00;99043.98;109229;1287;251644;-70
2023/03/16 04:33:43;;;;;;;26.20;14.20;;;;;;;2.39;100.00;99047.27;109578;1280;22564;-70
2023/03/16 04:36:12;;;;;;;22.50;13.70;;;;;;;2.37;100.00;99050.13;109664;1280;22210;-71
2023/03/16 04:38:40;;;;;;;25.20;13.90;;;;;;;2.40;100.00;99056.38;109540;1282;22287;-70
2023/03/16 04:41:10;;;;;;;28.50;14.80;;;;;;;2.39;100.00;99053.66;109607;1286;22226;-70
2023/03/16 04:43:45;;;;;;;25.90;14.70;;;;;;;2.34;100.00;99054.66;109563;1286;23291;-70
2023/03/16 04:46:19;;;;;;;25.00;14.70;;;;;;;2.25;100.00;99053.34;109572;1287;22357;-70
2023/03/16 04:48:48;;;;;;;21.50;13.80;;;;;;;2.21;100.00;99053.46;109570;1287;23057;-71
2023/03/16 04:51:16;;;;;;;24.00;14.00;;;;;;;2.18;100.00;99057.61;109571;1286;23195;-70
2023/03/16 04:53:52;;;;;;;26.80;14.70;;;;;;;2.16;100.00;99064.25;109568;1285;22544;-70
2023/03/16 04:56:32;;;;;;;25.90;15.30;;;;;;;2.18;100.00;99067.32;109612;1287;22198;-70
2023/03/16 04:59:04;;;;;;;22.50;14.00;;;;;;;2.08;100.00;99068.58;109612;1281;22870;-70
2023/03/16 05:01:47;;;;;;;25.40;15.70;;;;;;;2.06;100.00;99071.33;109610;1279;23298;-71
2023/03/16 05:04:15;;;;;;;22.90;14.00;;;;;;;2.03;100.00;99074.42;109610;1285;22389;-70
2023/03/16 05:06:47;;;;;;;25.90;15.70;;;;;;;2.04;100.00;99078.58;109608;1280;23063;-70
2023/03/16 05:09:19;;;;;;;24.60;14.90;;;;;;;2.11;100.00;99082.77;109602;1287;22870;-70
2023/03/16 05:11:48;;;;;;;27.30;15.50;;;;;;;2.12;100.00;99084.36;109569;1280;22919;-70
2023/03/16 05:14:24;;;;;;;23.90;14.10;;;;;;;2.14;100.00;99081.02;109621;1279;22358;-70
2023/03/16 05:17:06;;;;;;;23.30;14.50;;;;;;;2.15;100.00;99085.09;109625;1286;22398;-70
2023/03/16 05:19:35;;;;;;;25.20;14.50;;;;;;;2.18;100.00;99088.64;109565;1283;22305;-70
2023/03/16 05:22:05;;;;;;;25.90;16.00;;;;;;;2.19;100.00;99092.21;109595;1285;23251;-69
2023/03/16 05:24:36;;;;;;;26.60;15.50;;;;;;;2.23;100.00;99100.02;109571;1282;22247;-70
2023/03/16 05:27:07;;;;;;;25.30;14.80;;;;;;;2.28;100.00;99107.30;109569;1287;23494;-70
2023/03/16 05:29:36;;;;;;;25.40;14.50;;;;;;;2.31;100.00;99116.50;109568;1283;22276;-70
2023/03/16 05:32:05;;;;;;;23.00;14.10;;;;;;;2.34;100.00;99120.42;109570;1279;22426;-71
2023/03/16 05:34:35;;;;;;;29.90;16.50;;;;;;;2.33;100.00;99118.54;109619;1282;22283;-71
2023/03/16 05:37:05;;;;;;;25.60;15.60;;;;;;;2.36;100.00;99123.31;109554;1288;22323;-70
2023/03/16 05:39:33;;;;;;;28.30;16.30;;;;;;;2.39;100.00;99127.52;109562;1282;22206;-70
2023/03/16 05:42:03;;;;;;;28.90;16.10;;;;;;;2.41;100.00;99132.80;109563;1282;22369;-70
2023/03/16 05:44:55;;;;;;;29.70;16.10;;;;;;;2.46;100.00;99132.23;109581;1280;22450;-71
2023/03/16 05:47:39;;;;;;;31.30;16.70;;;;;;;2.49;100.00;99135.97;109554;1283;22239;-70
2023/03/16 05:50:10;;;;;;;26.40;15.60;;;;;;;2.53;100.00;99138.27;109514;1280;22431;-70
2023/03/16 05:52:43;;;;;;;28.70;16.90;;;;;;;2.59;100.00;99146.42;109579;1280;22923;-70
2023/03/16 05:55:16;;;;;;;26.40;15.90;;;;;;;2.64;100.00;99150.79;109629;1285;22284;-70
2023/03/16 05:57:48;;;;;;;28.70;15.90;;;;;;;2.65;100.00;99154.88;109516;1280;22347;-71
2023/03/16 06:00:18;;;;;;;27.00;15.10;;;;;;;2.72;100.00;99154.17;109585;1285;22741;-72
2023/03/16 06:02:50;;;;;;;26.10;15.00;;;;;;;2.76;100.00;99146.52;109491;1284;22807;-70
2023/03/16 06:05:19;;;;;;;27.00;16.70;;;;;;;2.83;100.00;99143.52;109584;1284;22403;-71
2023/03/16 06:07:48;;;;;;;26.60;16.40;;;;;;;2.85;100.00;99145.88;109598;1286;23133;-72
2023/03/16 06:10:21;;;;;;;26.10;15.50;;;;;;;2.87;100.00;99147.10;109534;1282;22419;-70
2023/03/16 06:12:50;;;;;;;25.60;15.50;;;;;;;2.92;100.00;99148.16;109538;1282;22399;-71
2023/03/16 06:15:23;;;;;;;29.20;16.50;;;;;;;2.92;100.00;99156.55;109577;1285;22978;-71
2023/03/16 06:17:54;;;;;;;28.30;15.40;;;;;;;2.91;100.00;99161.98;109485;1288;22340;-71
2023/03/16 06:20:25;;;;;;;27.70;17.40;;;;;;;2.87;100.00;99159.24;109421;1282;22179;-71
2023/03/16 06:22:55;;;;;;;28.80;15.90;;;;;;;2.92;100.00;99170.98;109478;1286;22315;-70
2023/03/16 06:25:23;;;;;;;31.00;17.90;;;;;;;2.98;100.00;99173.67;109424;1281;22445;-71
2023/03/16 06:27:52;;;;;;;30.90;17.50;;;;;;;3.04;100.00;99177.20;109475;1288;22444;-71
2023/03/16 06:30:23;;;;;;;27.60;17.50;;;;;;;3.06;100.00;99181.22;109454;1280;22214;-69
2023/03/16 06:32:52;;;;;;;27.00;15.90;;;;;;;3.09;100.00;99183.27;109439;1282;22444;-70
2023/03/16 06:35:20;;;;;;;27.20;16.60;;;;;;;3.14;100.00;99184.13;109144;1281;22724;-69
2023/03/16 06:38:02;;;;;;;28.30;17.40;;;;;;;3.13;100.00;99187.50;106718;1288;26510;-70
2023/03/16 06:40:52;;;;;;;27.80;16.60;;;;;;;3.12;100.00;99192.90;105656;1282;24245;-69
2023/03/16 06:43:21;;;;;;;27.70;17.10;;;;;;;3.13;100.00;99191.30;109535;1281;23202;-70
2023/03/16 06:45:50;;;;;;;28.30;16.20;;;;;;;3.08;100.00;99197.13;109515;1282;22215;-70
2023/03/16 06:48:18;;;;;;;27.60;17.40;;;;;;;3.12;100.00;99195.87;109659;1284;22480;-71
2023/03/16 06:50:48;;;;;;;26.80;16.60;;;;;;;3.15;100.00;99200.58;109669;1279;22221;-70
2023/03/16 06:53:21;;;;;;;24.50;15.90;;;;;;;3.14;100.00;99201.14;109650;1280;22255;-70
2023/03/16 06:55:51;;;;;;;26.20;15.90;;;;;;;3.16;100.00;99196.60;109657;1283;23134;-70
2023/03/16 06:58:20;;;;;;;20.70;14.00;;;;;;;3.23;100.00;99196.37;109682;1278;22291;-69
2023/03/16 07:00:54;;;;;;;21.80;15.30;;;;;;;3.28;100.00;99198.46;109529;1279;22277;-70
2023/03/16 07:03:23;;;;;;;23.30;15.00;;;;;;;3.29;100.00;99200.88;108178;1283;24246;-70
2023/03/16 07:05:56;;;;;;;23.10;16.40;;;;;;;3.26;100.00;99200.15;106228;1280;22550;-70
2023/03/16 07:08:24;;;;;;;23.00;15.00;;;;;;;3.25;100.00;99202.98;106472;1284;22696;-68
2023/03/16 07:10:54;;;;;;;20.40;15.40;;;;;;;3.29;100.00;99204.52;106428;1279;25362;-69
2023/03/16 07:13:22;;;;;;;25.00;15.90;;;;;;;3.35;100.00;99207.48;106348;1278;22522;-69
2023/03/16 07:15:51;;;;;;;21.40;15.50;;;;;;;3.37;100.00;99215.08;106069;1278;22524;-70
2023/03/16 07:18:20;;;;;;;25.10;15.60;;;;;;;3.37;100.00;99222.98;109783;1277;22419;-71
2023/03/16 07:20:48;;;;;;;22.90;15.80;;;;;;;3.40;100.00;99230.91;109795;1279;22446;-70
2023/03/16 07:23:17;;;;;;;21.40;15.30;;;;;;;3.45;100.00;99232.35;109791;1279;23545;-70
2023/03/16 07:25:46;;;;;;;24.90;15.30;;;;;;;3.51;100.00;99234.83;109789;1283;22249;-70
2023/03/16 07:28:18;;;;;;;24.50;15.20;;;;;;;3.54;100.00;99237.42;109804;1279;22457;-70
2023/03/16 07:30:46;;;;;;;22.20;15.20;;;;;;;3.48;100.00;99236.29;109772;1278;23132;-70
2023/03/16 07:33:33;;;;;;;25.90;15.90;;;;;;;3.46;100.00;99243.46;109942;1276;23011;-70
2023/03/16 07:36:04;;;;;;;21.60;14.50;;;;;;;3.49;100.00;99245.10;109959;1279;22273;-70
2023/03/16 07:38:34;;;;;;;23.50;15.50;;;;;;;3.47;100.00;99251.39;109989;1272;22305;-70
2023/03/16 07:41:06;;;;;;;21.20;15.00;;;;;;;3.48;100.00;99250.45;109970;1279;22459;-71
2023/03/16 07:43:36;;;;;;;23.40;14.20;;;;;;;3.49;100.00;99248.36;110062;1279;23510;-71
2023/03/16 07:46:05;;;;;;;22.50;14.50;;;;;;;3.48;100.00;99245.31;110000;1272;22451;-70
2023/03/16 07:48:36;;;;;;;24.60;15.90;;;;;;;3.45;100.00;99246.79;110012;1279;22832;-70
2023/03/16 07:51:05;;;;;;;21.00;14.10;;;;;;;3.47;100.00;99249.02;109918;1273;23258;-70
2023/03/16 07:53:34;;;;;;;22.30;14.70;;;;;;;3.53;100.00;99245.15;109959;1272;22438;-70
2023/03/16 07:56:31;;;;;;;23.90;15.50;;;;;;;3.48;100.00;99251.36;108781;1277;22526;-70
2023/03/16 07:59:23;;;;;;;22.10;14.30;;;;;;;3.49;100.00;99255.79;107395;1272;25403;-70
2023/03/16 08:01:52;;;;;;;24.30;15.40;;;;;;;3.51;100.00;99256.27;107364;1272;25379;-69
2023/03/16 08:04:21;;;;;;;23.40;15.40;;;;;;;3.48;100.00;99254.27;107747;1266;22456;-69
2023/03/16 08:06:58;;;;;;;26.20;14.30;;;;;;;3.53;100.00;99250.48;109979;1279;22559;-69
2023/03/16 08:09:30;;;;;;;23.50;14.30;;;;;;;3.60;100.00;99253.48;110033;1273;22198;-71
2023/03/16 08:12:03;;;;;;;23.70;15.70;;;;;;;3.61;100.00;99249.40;109962;1272;23500;-71
2023/03/16 08:14:36;;;;;;;20.60;14.20;;;;;;;3.67;100.00;99254.17;109895;1277;22401;-70
2023/03/16 08:17:11;;;;;;;21.60;13.40;;;;;;;3.74;100.00;99256.84;110030;1280;22275;-70
2023/03/16 08:19:47;;;;;;;23.20;15.30;;;;;;;3.76;100.00;99253.23;110008;1274;22264;-71
2023/03/16 08:22:16;;;;;;;18.90;13.30;;;;;;;3.76;100.00;99252.20;109928;1273;23449;-71
2023/03/16 08:24:45;;;;;;;20.00;13.70;;;;;;;3.85;100.00;99254.52;110061;1279;22389;-71
2023/03/16 08:27:18;;;;;;;19.70;12.90;;;;;;;3.90;100.00;99260.55;109962;1273;22893;-71
2023/03/16 08:29:53;;;;;;;18.80;13.20;;;;;;;4.00;100.00;99264.55;109987;1279;22285;-70
2023/03/16 08:32:26;;;;;;;21.60;14.00;;;;;;;4.10;100.00;99271.96;109879;1272;22369;-70
2023/03/16 08:34:56;;;;;;;19.10;13.30;;;;;;;4.09;100.00;99276.95;109998;1276;22803;-71
2023/03/16 08:37:26;;;;;;;21.70;13.10;;;;;;;4.08;100.00;99282.95;109943;1279;22287;-70
2023/03/16 08:39:54;;;;;;;18.30;12.60;;;;;;;4.10;100.00;99286.99;109922;1279;22881;-71
2023/03/16 08:42:24;;;;;;;21.50;13.60;;;;;;;4.06;100.00;99288.92;109977;1272;22266;-71
2023/03/16 08:44:59;;;;;;;21.50;13.00;;;;;;;3.97;100.00;99287.40;109879;1277;22296;-70
2023/03/16 08:47:29;;;;;;;20.00;12.30;;;;;;;3.96;100.00;99293.70;109926;1280;22222;-71
2023/03/16 08:49:59;;;;;;;19.30;13.50;;;;;;;3.96;100.00;99297.08;110005;1276;22927;-71
2023/03/16 08:52:27;;;;;;;19.60;12.20;;;;;;;3.94;100.00;99294.72;109974;1272;22390;-71
2023/03/16 08:54:55;;;;;;;18.80;12.60;;;;;;;3.95;100.00;99295.91;110014;1275;22967;-71
2023/03/16 08:57:33;;;;;;;17.60;11.50;;;;;;;3.98;100.00;99300.25;110060;1279;22269;-72
2023/03/16 09:00:11;;;;;;;18.70;12.60;;;;;;;3.98;100.00;99300.56;110067;1273;22445;-71
2023/03/16 09:02:40;;;;;;;19.30;12.20;;;;;;;3.95;100.00;99302.83;110011;1279;22381;-71
2023/03/16 09:05:10;;;;;;;19.00;11.90;;;;;;;3.95;100.00;99304.90;109935;1272;23127;-71
2023/03/16 09:07:39;;;;;;;16.70;12.60;;;;;;;4.01;100.00;99304.98;110043;1272;22222;-71
2023/03/16 09:10:12;;;;;;;18.40;10.90;;;;;;;4.07;100.00;99302.83;109936;1279;22415;-71
2023/03/16 09:12:44;;;;;;;17.10;11.60;;;;;;;4.09;100.00;99306.14;110036;1272;22253;-71
2023/03/16 09:15:12;;;;;;;16.30;11.20;;;;;;;4.09;100.00;99303.36;110010;1273;22336;-70
2023/03/16 09:17:41;;;;;;;18.80;10.80;;;;;;;4.14;100.00;99300.88;110102;1279;22225;-70
2023/03/16 09:20:11;;;;;;;18.20;12.00;;;;;;;4.13;100.00;99305.47;110030;1272;22317;-69
2023/03/16 09:22:50;;;;;;;19.00;11.60;;;;;;;4.15;100.00;99304.02;110055;1276;22389;-70
2023/03/16 09:25:19;;;;;;;15.90;10.70;;;;;;;4.15;100.00;99305.80;110034;1272;22728;-71
2023/03/16 09:27:47;;;;;;;17.40;11.50;;;;;;;4.15;100.00;99301.43;109991;1272;22286;-69
2023/03/16 09:30:17;;;;;;;17.80;11.50;;;;;;;4.14;100.00;99303.67;109987;1274;22209;-70
2023/03/16 09:32:47;;;;;;;17.60;10.80;;;;;;;4.20;100.00;99303.77;109988;1277;22290;-69
2023/03/16 09:35:16;;;;;;;15.30;10.20;;;;;;;4.26;100.00;99305.56;110036;1278;22974;-69
2023/03/16 09:37:44;;;;;;;15.40;10.50;;;;;;;4.28;100.00;99306.68;110078;1278;22694;-69
2023/03/16 09:40:32;;;;;;;17.40;11.00;;;;;;;4.24;100.00;99304.50;110020;1273;22410;-69
2023/03/16 09:43:09;;;;;;;15.30;10.60;;;;;;;4.25;100.00;99309.27;109989;1274;22198;-70
2023/03/16 09:46:00;;;;;;;14.80;10.10;;;;;;;4.29;100.00;99312.23;109976;1279;23112;-69
2023/03/16 09:48:34;;;;;;;16.00;10.00;;;;;;;4.28;100.00;99311.38;110021;1279;22303;-69
2023/03/16 09:51:06;;;;;;;14.30;9.30;;;;;;;4.28;100.00;99308.71;110063;1276;23067;-69
2023/03/16 09:53:37;;;;;;;13.90;9.80;;;;;;;4.36;100.00;99313.51;110037;1279;22412;-70
2023/03/16 09:56:09;;;;;;;16.20;10.70;;;;;;;4.40;100.00;99316.59;110052;1279;22495;-69
2023/03/16 09:58:38;;;;;;;14.00;9.80;;;;;;;4.42;100.00;99321.72;110069;1279;22267;-69
2023/03/16 10:01:33;;;;;;;14.60;9.70;;;;;;;4.49;100.00;99319.03;109951;1273;22407;-69
2023/03/16 10:04:23;;;;;;;14.60;9.90;;;;;;;4.48;100.00;99318.48;110064;1278;22332;-69
2023/03/16 10:07:08;;;;;;;14.60;9.40;;;;;;;4.40;100.00;99317.41;110065;1279;22305;-69
2023/03/16 10:09:46;;;;;;;14.80;9.10;;;;;;;4.39;100.00;99315.83;110107;1279;22436;-69
2023/03/16 10:12:15;;;;;;;15.00;8.80;;;;;;;4.37;100.00;99316.77;110071;1279;22288;-69
2023/03/16 10:14:54;;;;;;;13.50;9.30;;;;;;;4.31;100.00;99320.50;110060;1276;22218;-69
2023/03/16 10:17:25;;;;;;;12.80;8.70;;;;;;;4.36;100.00;99319.83;110013;1274;23059;-69
2023/03/16 10:20:08;;;;;;;16.40;10.20;;;;;;;4.42;100.00;99315.48;109916;1278;22425;-69
2023/03/16 10:22:39;;;;;;;16.20;9.40;;;;;;;4.51;100.00;99315.61;109973;1280;22342;-70
2023/03/16 10:25:38;;;;;;;13.10;8.40;;;;;;;4.60;100.00;99319.49;110003;1275;22215;-69
2023/03/16 10:28:19;;;;;;;13.50;9.60;;;;;;;4.61;100.00;99326.20;109972;1272;22442;-69
2023/03/16 10:30:54;;;;;;;13.70;8.90;;;;;;;4.56;100.00;99323.59;109977;1273;22302;-70
2023/03/16 10:33:30;;;;;;;13.70;8.40;;;;;;;4.53;100.00;99324.39;109967;1274;23555;-69
2023/03/16 10:36:04;;;;;;;13.20;8.60;;;;;;;4.63;100.00;99328.92;110007;1274;22195;-70
2023/03/16 10:38:54;;;;;;;13.70;9.60;;;;;;;4.74;100.00;99335.64;109978;1278;22402;-69
2023/03/16 10:41:31;;;;;;;15.70;9.80;;;;;;;4.75;100.00;99339.05;109975;1274;23146;-70
2023/03/16 10:44:15;;;;;;;12.70;9.30;;;;;;;4.75;100.00;99337.48;109981;1280;23011;-69
2023/03/16 10:46:47;;;;;;;15.30;10.10;;;;;;;4.75;100.00;99343.20;109995;1280;22338;-69
2023/03/16 10:49:40;;;;;;;14.60;9.50;;;;;;;4.73;100.00;99346.95;109882;1278;22468;-69
2023/03/16 10:52:22;;;;;;;15.40;9.90;;;;;;;4.74;100.00;99349.04;109799;1280;22214;-69
2023/03/16 10:54:59;;;;;;;13.60;9.70;;;;;;;4.67;100.00;99348.40;109907;1279;22183;-70
2023/03/16 10:57:34;;;;;;;15.20;9.60;;;;;;;4.59;100.00;99343.58;109924;1273;22662;-69
2023/03/16 11:00:24;;;;;;;14.80;8.80;;;;;;;4.58;100.00;99345.01;109936;1278;22213;-69
2023/03/16 11:02:56;;;;;;;15.80;8.90;;;;;;;4.54;100.00;99343.27;109903;1278;22383;-69
2023/03/16 11:05:29;;;;;;;15.10;10.00;;;;;;;4.45;100.00;99346.46;109870;1274;22845;-69
2023/03/16 11:07:58;;;;;;;15.30;9.40;;;;;;;4.44;100.00;99351.55;109929;1280;22705;-69
2023/03/16 11:10:31;;;;;;;14.80;9.30;;;;;;;4.42;100.00;99350.34;109964;1272;23796;-69
2023/03/16 11:13:16;;;;;;;17.40;9.90;;;;;;;4.38;100.00;99352.46;109839;1274;22392;-69
2023/03/16 11:16:00;;;;;;;14.50;9.50;;;;;;;4.33;100.00;99348.17;109919;1279;22860;-70
2023/03/16 11:18:39;;;;;;;14.70;9.60;;;;;;;4.35;100.00;99343.34;109791;1274;22225;-69
2023/03/16 11:21:16;;;;;;;16.60;9.70;;;;;;;4.41;100.00;99347.30;109773;1274;23772;-69
2023/03/16 11:23:48;;;;;;;14.60;9.90;;;;;;;4.47;100.00;99345.95;109799;1278;22284;-69
2023/03/16 11:26:24;;;;;;;16.50;9.80;;;;;;;4.45;100.00;99349.80;109883;1278;22352;-69
2023/03/16 11:29:01;;;;;;;15.80;10.00;;;;;;;4.48;100.00;99349.38;109818;1275;22282;-69
2023/03/16 11:32:04;;;;;;;14.40;10.00;;;;;;;4.46;100.00;99350.19;109854;1276;23028;-69
2023/03/16 11:34:34;;;;;;;16.60;10.10;;;;;;;4.47;100.00;99352.58;109946;1279;22417;-69
2023/03/16 11:37:24;;;;;;;16.80;11.20;;;;;;;4.48;100.00;99355.95;109785;1279;22403;-69